Terminal Aerodrome Forecast
Issued by NWS

Current Version | Previous Version | Text Only | Print | Product List | Glossary On
Versions: 1 2 3 4 5 6 7 8 9 10 11 12 13
000
FTUS45 KRIW 290537
TAFLND
TAF
KLND 290537Z 2906/3006 23008KT P6SM FEW120 SCT200
     FM291800 22013G21KT P6SM FEW110 SCT200
     FM300300 23015G23KT P6SM SCT110 BKN200=

USA.gov is the U.S. government's official web portal to all federal, state and local government web resources and services.